createdAt,value
2019-04-22T00:01:30.841Z,101386.90
2019-04-22T00:04:03.596Z,101375.74
2019-04-22T00:06:49.958Z,101377.95
2019-04-22T00:09:24.117Z,101372.64
2019-04-22T00:11:58.942Z,101373.98
2019-04-22T00:14:23.222Z,101369.94
2019-04-22T00:16:58.615Z,101364.17
2019-04-22T00:19:36.051Z,101362.83
2019-04-22T00:22:07.703Z,101360.52
2019-04-22T00:24:32.097Z,101359.16
2019-04-22T00:27:05.262Z,101350.70
2019-04-22T00:29:56.760Z,101349.36
2019-04-22T00:32:11.371Z,101348.39
2019-04-22T00:34:43.996Z,101344.34
2019-04-22T00:37:17.696Z,101344.83
2019-04-22T00:39:51.763Z,101336.86
2019-04-22T00:42:21.447Z,101336.86
2019-04-22T00:45:00.718Z,101334.06
2019-04-22T00:47:30.604Z,101332.82
2019-04-22T00:52:28.103Z,101325.78
2019-04-22T00:55:10.135Z,101322.19
2019-04-22T00:57:55.315Z,101318.45
2019-04-22T01:00:07.217Z,101317.03
2019-04-22T01:02:39.807Z,101315.76
2019-04-22T01:05:07.681Z,101307.67
2019-04-22T01:07:38.859Z,101304.13
2019-04-22T01:10:11.584Z,101305.47
2019-04-22T01:12:39.524Z,101301.98
2019-04-22T01:15:15.845Z,101299.70
2019-04-22T01:17:45.401Z,101300.56
2019-04-22T01:20:39.071Z,101295.25
2019-04-22T01:22:38.365Z,101298.43
2019-04-22T01:25:15.994Z,101291.63
2019-04-22T01:27:41.499Z,101284.58
2019-04-22T01:30:08.018Z,101286.72
2019-04-22T01:32:47.239Z,101275.53
2019-04-22T01:35:28.643Z,101278.23
2019-04-22T01:38:06.179Z,101276.39
2019-04-22T01:40:45.542Z,101272.46
2019-04-22T01:43:16.898Z,101275.23
2019-04-22T01:45:49.693Z,101270.70
2019-04-22T01:48:17.635Z,101270.70
2019-04-22T01:50:43.226Z,101264.45
2019-04-22T01:53:24.441Z,101263.11
2019-04-22T01:55:50.048Z,101269.47
2019-04-22T01:58:18.320Z,101263.11
2019-04-22T02:00:53.695Z,101259.07
2019-04-22T02:03:26.540Z,101253.38
2019-04-22T02:06:02.445Z,101252.45
2019-04-22T02:08:39.354Z,101252.45
2019-04-22T02:11:01.140Z,101247.52
2019-04-22T02:13:38.299Z,101244.89
2019-04-22T02:16:10.671Z,101244.81
2019-04-22T02:21:03.158Z,101228.80
2019-04-22T02:23:47.065Z,101233.67
2019-04-22T02:26:07.132Z,101231.50
2019-04-22T02:31:25.584Z,101216.20
2019-04-22T02:38:59.424Z,101205.42
2019-04-22T02:44:03.948Z,101203.70
2019-04-22T02:51:27.707Z,101202.06
2019-04-22T02:54:21.872Z,101191.77
2019-04-22T03:14:08.716Z,101170.67
2019-04-22T03:19:25.543Z,101161.84
2019-04-22T03:21:38.127Z,101160.50
2019-04-22T03:24:20.256Z,101157.40
2019-04-22T03:29:10.708Z,101152.13
2019-04-22T03:37:23.212Z,101146.81
2019-04-22T03:42:07.118Z,101139.03
2019-04-22T03:44:39.120Z,101133.34
2019-04-22T03:52:10.819Z,101128.83
2019-04-22T03:59:48.067Z,101134.70
2019-04-22T04:07:32.443Z,101118.61
2019-04-22T04:09:54.086Z,101110.46
2019-04-22T04:14:57.979Z,101109.67
2019-04-22T04:17:29.719Z,101102.57
2019-04-22T04:20:05.858Z,101109.67
2019-04-22T04:27:43.638Z,101102.57
2019-04-22T04:30:12.120Z,101100.36
2019-04-22T04:35:18.933Z,101088.70
2019-04-22T04:37:44.569Z,101089.67
2019-04-22T04:40:18.152Z,101085.07
2019-04-22T04:45:25.832Z,101086.49
2019-04-22T04:50:15.861Z,101083.91
2019-04-22T05:02:58.406Z,101080.81
2019-04-22T05:13:01.866Z,101088.11
2019-04-22T05:23:00.688Z,101080.89
2019-04-22T05:25:23.521Z,101075.13
2019-04-22T05:28:06.867Z,101072.81
2019-04-22T05:30:26.668Z,101076.47
2019-04-22T05:32:55.346Z,101067.13
2019-04-22T05:35:27.509Z,101068.48
2019-04-22T05:38:04.183Z,101071.66
2019-04-22T05:43:01.960Z,101073.48
2019-04-22T05:45:49.460Z,101071.17
2019-04-22T05:48:04.508Z,101069.38
2019-04-22T05:50:26.931Z,101068.48
2019-04-22T05:53:00.734Z,101063.09
2019-04-22T05:55:43.853Z,101067.43
2019-04-22T05:58:08.991Z,101067.43
2019-04-22T06:01:04.239Z,101065.70
2019-04-22T06:03:12.346Z,101064.92
2019-04-22T06:05:41.667Z,101061.38
2019-04-22T06:08:10.305Z,101060.52
2019-04-22T06:10:45.388Z,101059.05
2019-04-22T06:13:14.287Z,101060.03
2019-04-22T06:15:42.834Z,101058.41
2019-04-22T06:18:22.799Z,101056.20
2019-04-22T06:20:53.131Z,101054.94
2019-04-22T06:26:05.556Z,101054.37
2019-04-22T06:28:44.080Z,101049.92
2019-04-22T06:30:57.424Z,101050.25
2019-04-22T06:33:26.124Z,101053.70
2019-04-22T06:43:36.890Z,101049.60
2019-04-22T06:46:02.399Z,101045.86
2019-04-22T06:48:49.067Z,101046.63
2019-04-22T06:51:08.101Z,101050.08
2019-04-22T06:56:14.271Z,101041.38
2019-04-22T06:58:40.975Z,101045.71
2019-04-22T07:01:19.335Z,101042.83
2019-04-22T07:03:47.658Z,101043.60
2019-04-22T07:06:23.976Z,101032.75
2019-04-22T07:11:11.013Z,101028.31
2019-04-22T07:13:50.314Z,101030.03
2019-04-22T07:16:30.253Z,101027.66
2019-04-22T07:21:27.175Z,101023.71
2019-04-22T07:26:24.824Z,101024.48
2019-04-22T07:28:55.077Z,101024.30
2019-04-22T07:31:30.759Z,101022.54
2019-04-22T07:34:17.830Z,101020.54
2019-04-22T07:36:45.518Z,101015.52
2019-04-22T07:39:07.180Z,101014.95
2019-04-22T07:41:38.410Z,101009.84
2019-04-22T07:44:13.094Z,101004.86
2019-04-22T07:46:41.747Z,101004.66
2019-04-22T07:49:10.898Z,101004.95
2019-04-22T07:54:16.415Z,101005.72
2019-04-22T07:56:43.873Z,100999.35
2019-04-22T07:59:15.250Z,101000.62
2019-04-22T08:01:43.935Z,100995.97
2019-04-22T08:04:22.893Z,100999.06
2019-04-22T08:06:52.791Z,100990.98
2019-04-22T08:11:52.489Z,100991.75
2019-04-22T08:14:30.066Z,100989.91
2019-04-22T08:17:01.011Z,100990.28
2019-04-22T08:19:40.456Z,100991.55
2019-04-22T08:21:58.094Z,100982.48
2019-04-22T08:24:35.909Z,100982.40
2019-04-22T08:26:58.165Z,100985.09
2019-04-22T08:29:37.249Z,100979.62
2019-04-22T08:32:04.692Z,100973.73
2019-04-22T08:34:50.124Z,100980.47
2019-04-22T08:37:37.049Z,100971.89
2019-04-22T08:39:40.740Z,100974.97
2019-04-22T08:42:22.087Z,100972.75
2019-04-22T08:47:21.503Z,100970.83
2019-04-22T08:49:50.215Z,100959.19
2019-04-22T08:52:16.232Z,100959.19
2019-04-22T08:54:50.539Z,100957.72
2019-04-22T08:57:24.179Z,100952.81
2019-04-22T08:59:48.989Z,100949.55
2019-04-22T09:02:26.023Z,100950.03
2019-04-22T09:04:53.773Z,100944.64
2019-04-22T09:09:55.344Z,100941.83
2019-04-22T09:15:02.454Z,100936.34
2019-04-22T09:20:40.370Z,100928.25
2019-04-22T09:25:43.984Z,100919.19
2019-04-22T09:28:20.463Z,100918.45
2019-04-22T09:30:46.842Z,100916.98
2019-04-22T09:35:51.711Z,100908.52
2019-04-22T09:38:31.521Z,100907.66
2019-04-22T09:40:52.531Z,100907.66
2019-04-22T09:43:33.613Z,100906.31
2019-04-22T09:45:54.456Z,100902.73
2019-04-22T09:48:29.660Z,100892.06
2019-04-22T09:51:03.789Z,100883.00
2019-04-22T09:53:41.731Z,100885.20
2019-04-22T09:56:03.477Z,100878.47
2019-04-22T09:58:39.390Z,100884.83
2019-04-22T10:01:21.647Z,100872.34
2019-04-22T10:03:45.349Z,100870.50
2019-04-22T10:06:23.100Z,100866.66
2019-04-22T10:08:52.741Z,100867.61
2019-04-22T10:11:25.112Z,100863.08
2019-04-22T10:13:53.607Z,100860.37
2019-04-22T10:16:27.674Z,100853.64
2019-04-22T10:18:52.029Z,100854.98
2019-04-22T10:21:24.296Z,100849.31
2019-04-22T10:23:58.977Z,100841.63
2019-04-22T10:26:28.311Z,100841.23
2019-04-22T10:29:00.863Z,100835.75
2019-04-22T10:31:36.965Z,100834.98
2019-04-22T10:33:49.719Z,100833.27
2019-04-22T10:36:07.868Z,100833.14
2019-04-22T10:38:37.911Z,100827.88
2019-04-22T10:41:08.321Z,100830.08
2019-04-22T10:43:39.205Z,100820.73
2019-04-22T10:46:10.546Z,100820.28
2019-04-22T10:48:40.341Z,100815.83
2019-04-22T10:51:10.701Z,100811.79
2019-04-22T10:53:41.823Z,100803.70
2019-04-22T10:56:12.715Z,100807.66
2019-04-22T10:58:42.843Z,100804.47
2019-04-22T11:01:13.592Z,100800.64
2019-04-22T11:03:43.544Z,100798.80
2019-04-22T11:06:14.829Z,100799.75
2019-04-22T11:08:52.341Z,100792.16
2019-04-22T11:11:30.206Z,100793.01
2019-04-22T11:13:47.919Z,100791.66
2019-04-22T11:16:17.683Z,100786.18
2019-04-22T11:18:47.690Z,100792.43
2019-04-22T11:21:18.060Z,100785.05
2019-04-22T11:23:47.933Z,100784.92
2019-04-22T11:26:17.857Z,100782.14
2019-04-22T11:28:47.737Z,100779.08
2019-04-22T11:31:18.679Z,100777.73
2019-04-22T11:33:48.611Z,100773.69
2019-04-22T11:36:19.761Z,100762.01
2019-04-22T11:38:55.864Z,100756.52
2019-04-22T11:41:21.620Z,100763.27
2019-04-22T11:43:53.488Z,100756.52
2019-04-22T11:46:25.318Z,100759.22
2019-04-22T11:48:55.987Z,100754.59
2019-04-22T11:51:27.560Z,100751.99
2019-04-22T11:53:58.810Z,100751.05
2019-04-22T11:56:29.405Z,100740.27
2019-04-22T11:59:00.672Z,100735.73
2019-04-22T12:01:30.905Z,100733.40
2019-04-22T12:04:02.008Z,100724.73
2019-04-22T12:06:32.093Z,100721.66
2019-04-22T12:09:01.872Z,100717.98
2019-04-22T12:11:32.390Z,100716.64
2019-04-22T12:14:04.158Z,100711.73
2019-04-22T12:16:35.041Z,100711.73
2019-04-22T12:19:05.121Z,100702.80
2019-04-22T12:21:35.204Z,100707.69
2019-04-22T12:24:05.521Z,100694.58
2019-04-22T12:26:35.418Z,100699.97
2019-04-22T12:29:05.037Z,100695.93
2019-04-22T12:31:35.740Z,100685.64
2019-04-22T12:34:06.067Z,100686.12
2019-04-22T12:36:36.236Z,100684.28
2019-04-22T12:39:09.464Z,100683.80
2019-04-22T12:41:42.367Z,100678.80
2019-04-22T12:44:11.689Z,100681.01
2019-04-22T12:46:42.014Z,100672.06
2019-04-22T12:49:12.199Z,100671.57
2019-04-22T12:51:43.209Z,100666.18
2019-04-22T12:54:13.183Z,100661.77
2019-04-22T12:56:43.973Z,100658.95
2019-04-22T12:59:14.051Z,100646.33
2019-04-22T13:01:44.682Z,100656.65
2019-04-22T13:04:19.461Z,100648.16
2019-04-22T13:06:48.074Z,100634.46
2019-04-22T13:09:19.476Z,100643.44
2019-04-22T13:11:51.026Z,100642.67
2019-04-22T13:14:21.223Z,100648.44
2019-04-22T13:16:51.333Z,100629.47
2019-04-22T13:19:22.991Z,100632.66
2019-04-22T13:21:52.481Z,100621.88
2019-04-22T13:24:23.785Z,100618.69
2019-04-22T13:26:54.955Z,100614.15
2019-04-22T13:29:25.392Z,100609.25
2019-04-22T13:31:55.156Z,100609.12
2019-04-22T13:34:32.904Z,100605.97
2019-04-22T13:36:56.739Z,100602.38
2019-04-22T13:39:27.117Z,100597.48
2019-04-22T13:42:02.079Z,100598.33
2019-04-22T13:44:28.362Z,100581.30
2019-04-22T13:47:15.754Z,100591.53
2019-04-22T13:50:11.744Z,100582.09
2019-04-22T13:52:45.051Z,100579.76
2019-04-22T13:57:24.884Z,100569.37
2019-04-22T13:59:40.903Z,100577.45
2019-04-22T14:02:22.372Z,100574.77
2019-04-22T14:04:54.765Z,100554.31
2019-04-22T14:07:25.662Z,100560.37
2019-04-22T14:09:56.118Z,100548.95
2019-04-22T14:12:26.652Z,100552.18
2019-04-22T14:14:58.394Z,100547.94
2019-04-22T14:17:29.365Z,100546.46
2019-04-22T14:20:00.445Z,100543.66
2019-04-22T14:22:30.569Z,100544.16
2019-04-22T14:25:00.757Z,100539.62
2019-04-22T14:27:41.813Z,100547.22
2019-04-22T14:30:02.110Z,100529.19
2019-04-22T14:32:33.933Z,100528.34
2019-04-22T14:35:04.982Z,100522.94
2019-04-22T14:37:36.380Z,100528.70
2019-04-22T14:40:09.250Z,100522.94
2019-04-22T14:44:15.607Z,100521.95
2019-04-22T14:45:43.842Z,100522.45
2019-04-22T14:48:09.367Z,100507.52
2019-04-22T14:50:35.147Z,100500.38
2019-04-22T14:53:04.077Z,100498.67
2019-04-22T14:55:21.336Z,100495.22
2019-04-22T14:57:46.928Z,100499.26
2019-04-22T15:00:18.124Z,100488.47
2019-04-22T15:02:48.062Z,100475.84
2019-04-22T15:05:18.570Z,100476.34
2019-04-22T15:07:49.819Z,100472.30
2019-04-22T15:10:20.167Z,100466.90
2019-04-22T15:12:53.387Z,100464.70
2019-04-22T15:15:47.424Z,100466.05
2019-04-22T15:18:26.037Z,100460.29
2019-04-22T15:21:00.650Z,100459.30
2019-04-22T15:23:31.073Z,100451.70
2019-04-22T15:26:02.250Z,100454.14
2019-04-22T15:28:33.379Z,100455.00
2019-04-22T15:31:03.596Z,100451.80
2019-04-22T15:33:35.258Z,100443.36
2019-04-22T15:36:05.773Z,100441.15
2019-04-22T15:38:36.498Z,100442.86
2019-04-22T15:41:06.958Z,100440.27
2019-04-22T15:43:37.220Z,100431.22
2019-04-22T15:46:07.747Z,100434.41
2019-04-22T15:48:37.847Z,100430.11
2019-04-22T15:51:08.729Z,100427.41
2019-04-22T15:53:39.774Z,100424.71
2019-04-22T15:56:10.549Z,100434.16
2019-04-22T15:58:41.685Z,100435.50
2019-04-22T16:01:19.263Z,100428.76
2019-04-22T16:03:44.760Z,100426.06
2019-04-22T16:06:15.751Z,100419.68
2019-04-22T16:08:45.848Z,100419.42
2019-04-22T16:11:15.991Z,100413.92
2019-04-22T16:13:46.540Z,100408.53
2019-04-22T16:16:16.612Z,100409.41
2019-04-22T16:18:46.532Z,100408.06
2019-04-22T16:21:27.688Z,100411.02
2019-04-22T16:23:56.510Z,100405.98
2019-04-22T16:26:44.504Z,100406.73
2019-04-22T16:29:15.821Z,100403.44
2019-04-22T16:31:47.453Z,100400.24
2019-04-22T16:34:17.458Z,100400.99
2019-04-22T16:36:47.295Z,100393.66
2019-04-22T16:39:18.544Z,100388.26
2019-04-22T16:41:48.714Z,100385.72
2019-04-22T16:44:18.686Z,100393.31
2019-04-22T16:46:49.874Z,100390.12
2019-04-22T16:49:19.635Z,100381.53
2019-04-22T16:51:49.968Z,100381.17
2019-04-22T16:54:20.174Z,100376.63
2019-04-22T16:56:50.294Z,100374.92
2019-04-22T16:59:20.041Z,100381.67
2019-04-22T17:02:08.877Z,100377.62
2019-04-22T17:04:59.657Z,100371.59
2019-04-22T17:07:30.023Z,100369.64
2019-04-22T17:10:01.926Z,100371.74
2019-04-22T17:12:44.298Z,100370.65
2019-04-22T17:15:08.691Z,100367.45
2019-04-22T17:17:40.954Z,100376.30
2019-04-22T17:20:11.577Z,100370.80
2019-04-22T17:22:41.895Z,100374.34
2019-04-22T17:25:12.041Z,100371.41
2019-04-22T17:27:43.353Z,100379.14
2019-04-22T17:30:14.713Z,100372.76
2019-04-22T17:32:48.739Z,100375.95
2019-04-22T17:35:20.024Z,100380.75
2019-04-22T17:38:03.076Z,100376.70
2019-04-22T17:40:39.437Z,100370.80
2019-04-22T17:43:32.659Z,100373.40
2019-04-22T17:46:07.224Z,100371.55
2019-04-22T17:48:55.897Z,100369.35
2019-04-22T17:51:30.026Z,100359.41
2019-04-22T17:53:56.900Z,100372.91
2019-04-22T17:56:28.256Z,100372.16
2019-04-22T17:58:57.394Z,100368.71
2019-04-22T18:01:31.015Z,100362.95
2019-04-22T18:03:47.371Z,100363.91
2019-04-22T18:06:35.031Z,100361.35
2019-04-22T18:09:03.653Z,100365.89
2019-04-22T18:11:39.689Z,100367.84
2019-04-22T18:14:27.213Z,100371.00
2019-04-22T18:16:40.436Z,100372.36
2019-04-22T18:19:13.605Z,100381.44
2019-04-22T18:21:34.954Z,100372.98
2019-04-22T18:24:01.359Z,100373.95
2019-04-22T18:26:43.633Z,100375.43
2019-04-22T18:29:20.974Z,100372.84
2019-04-22T18:31:35.339Z,100375.89
2019-04-22T18:34:10.071Z,100376.14
2019-04-22T18:36:45.434Z,100376.63
2019-04-22T18:39:27.183Z,100382.63
2019-04-22T18:41:54.433Z,100385.34
2019-04-22T18:44:29.609Z,100381.68
2019-04-22T18:46:56.470Z,100377.73
2019-04-22T18:49:33.942Z,100387.18
2019-04-22T18:52:19.947Z,100383.39
2019-04-22T18:55:11.558Z,100384.50
2019-04-22T18:57:54.980Z,100380.84
2019-04-22T19:00:16.230Z,100385.84
2019-04-22T19:02:54.168Z,100390.53
2019-04-22T19:05:30.281Z,100385.03
2019-04-22T19:08:18.203Z,100388.69
2019-04-22T19:10:51.813Z,100392.25
2019-04-22T19:13:45.503Z,100391.53
2019-04-22T19:15:54.251Z,100397.64
2019-04-22T19:18:24.579Z,100390.17
2019-04-22T19:20:51.307Z,100396.17
2019-04-22T19:23:22.716Z,100390.78
2019-04-22T19:25:49.983Z,100403.52
2019-04-22T19:28:29.228Z,100399.22
2019-04-22T19:31:02.707Z,100396.27
2019-04-22T19:33:28.660Z,100394.66
2019-04-22T19:35:59.718Z,100399.56
2019-04-22T19:38:16.496Z,100401.14
2019-04-22T19:41:07.047Z,100405.69
2019-04-22T19:43:33.222Z,100406.78
2019-04-22T19:46:02.179Z,100409.94
2019-04-22T19:48:39.277Z,100407.24
2019-04-22T19:51:11.529Z,100402.94
2019-04-22T19:53:42.180Z,100400.24
2019-04-22T19:56:06.194Z,100396.95
2019-04-22T19:58:37.454Z,100400.99
2019-04-22T20:01:48.557Z,100398.44
2019-04-22T20:04:44.549Z,100393.14
2019-04-22T20:07:11.318Z,100397.78
2019-04-22T20:09:49.357Z,100395.69
2019-04-22T20:12:16.435Z,100387.23
2019-04-22T20:14:47.348Z,100389.54
2019-04-22T20:17:18.816Z,100389.54
2019-04-22T20:19:57.775Z,100385.98
2019-04-22T20:22:17.521Z,100377.64
2019-04-22T20:24:43.497Z,100381.33
2019-04-22T20:27:23.748Z,100382.19
2019-04-22T20:30:02.494Z,100381.83
2019-04-22T20:32:26.539Z,100386.72
2019-04-22T20:35:05.958Z,100384.28
2019-04-22T20:37:35.647Z,100385.23
2019-04-22T20:40:02.525Z,100384.88
2019-04-22T20:45:13.091Z,100381.69
2019-04-22T20:47:31.957Z,100378.63
2019-04-22T20:50:05.380Z,100380.83
2019-04-22T20:52:48.335Z,100371.99
2019-04-22T20:55:10.700Z,100372.39
2019-04-22T20:57:48.309Z,100368.80
2019-04-22T21:00:11.640Z,100371.14
2019-04-22T21:02:39.060Z,100368.55
2019-04-22T21:05:04.288Z,100367.33
2019-04-22T21:07:53.939Z,100367.44
2019-04-22T21:10:17.212Z,100375.52
2019-04-22T21:12:39.967Z,100371.98
2019-04-22T21:15:26.757Z,100368.28
2019-04-22T21:17:54.373Z,100363.78
2019-04-22T21:20:34.820Z,100366.94
2019-04-22T21:22:55.870Z,100367.08
2019-04-22T21:25:20.885Z,100367.57
2019-04-22T21:27:58.224Z,100363.03
2019-04-22T21:30:32.256Z,100357.14
2019-04-22T21:32:59.501Z,100355.05
2019-04-22T21:35:47.226Z,100358.98
2019-04-22T21:38:10.766Z,100353.59
2019-04-22T21:40:38.825Z,100359.09
2019-04-22T21:43:16.307Z,100359.09
2019-04-22T21:45:35.352Z,100353.34
2019-04-22T21:48:24.677Z,100353.08
2019-04-22T21:51:04.973Z,100351.23
2019-04-22T21:53:28.676Z,100348.54
2019-04-22T21:55:50.429Z,100350.84
2019-04-22T21:58:38.645Z,100359.69
2019-04-22T22:01:28.233Z,100352.19
2019-04-22T22:03:57.277Z,100353.94
2019-04-22T22:06:16.713Z,100356.63
2019-04-22T22:08:57.947Z,100351.23
2019-04-22T22:11:24.487Z,100352.82
2019-04-22T22:13:59.476Z,100342.89
2019-04-22T22:16:25.096Z,100347.30
2019-04-22T22:19:02.477Z,100339.70
2019-04-22T22:21:43.439Z,100339.70
2019-04-22T22:24:13.198Z,100337.99
2019-04-22T22:26:40.093Z,100338.84
2019-04-22T22:29:08.890Z,100330.86
2019-04-22T22:31:41.285Z,100328.56
2019-04-22T22:34:13.951Z,100326.42
2019-04-22T22:36:36.785Z,100329.91
2019-04-22T22:39:03.993Z,100333.06
2019-04-22T22:41:23.931Z,100328.92
2019-04-22T22:44:03.330Z,100336.52
2019-04-22T22:46:34.108Z,100326.72
2019-04-22T22:49:18.651Z,100331.81
2019-04-22T22:52:00.107Z,100325.19
2019-04-22T22:54:23.903Z,100324.83
2019-04-22T22:59:25.196Z,100322.23
2019-04-22T23:01:50.974Z,100327.12
2019-04-22T23:04:29.622Z,100325.31
2019-04-22T23:07:00.398Z,100318.19
2019-04-22T23:09:30.680Z,100331.66
2019-04-22T23:14:32.698Z,100323.81
2019-04-22T23:16:51.319Z,100324.67
2019-04-22T23:19:15.741Z,100317.57
2019-04-22T23:21:49.616Z,100316.22
2019-04-22T23:24:54.120Z,100314.02
2019-04-22T23:27:34.552Z,100309.09
2019-04-22T23:30:12.821Z,100307.74
2019-04-22T23:32:43.997Z,100307.28
2019-04-22T23:35:33.881Z,100310.08
2019-04-22T23:38:03.562Z,100299.30
2019-04-22T23:40:39.058Z,100302.48
2019-04-22T23:43:17.273Z,100295.36
2019-04-22T23:45:45.179Z,100303.94
2019-04-22T23:48:08.312Z,100296.70
2019-04-22T23:50:45.679Z,100293.66
2019-04-22T23:53:55.597Z,100291.94
2019-04-22T23:56:10.612Z,100283.47
2019-04-22T23:58:53.077Z,100285.66
